Time;durP1;ratioP1;P1;durP2;ratioP2;P2;SDS_P1;SDS_P2;PMS_P1;PMS_P2;Temp;Humidity;BMP_temperature;BMP_pressure;BME280_temperature;BME280_humidity;BME280_pressure;Samples;Min_cycle;Max_cycle;Signal;HPM_P1;HPM_P2
2022/08/02 00:02:03;;;;;;;1.25;0.68;;;;;;;;;;21037314;28;20252;-70
2022/08/02 00:12:05;;;;;;;1.60;0.82;;;;;;;;;;21069907;28;20215;-70
2022/08/02 00:22:07;;;;;;;1.83;0.73;;;25.30;94.50;;;;;;21035304;28;20221;-70
2022/08/02 00:32:08;;;;;;;1.30;0.70;;;;;;;;;;20984064;28;20220;-70
2022/08/02 00:42:13;;;;;;;1.23;0.70;;;24.80;99.70;;;;;;20993168;28;20266;-70
2022/08/02 00:52:15;;;;;;;0.90;0.60;;;;;;;;;;21000729;28;20242;-70
2022/08/02 01:02:16;;;;;;;1.00;0.60;;;;;;;;;;21017328;28;20204;-70
2022/08/02 01:12:18;;;;;;;1.17;0.63;;;;;;;;;;20999938;28;20273;-71
2022/08/02 01:22:20;;;;;;;1.70;0.52;;;;;;;;;;20998963;28;20215;-70
2022/08/02 01:32:26;;;;;;;0.98;0.68;;;24.60;99.90;;;;;;20996980;28;20225;-69
2022/08/02 01:42:30;;;;;;;1.38;0.80;;;24.60;98.30;;;;;;20997461;28;20212;-70
2022/08/02 01:52:35;;;;;;;1.48;0.75;;;;;;;;;;20995393;28;20280;-70
2022/08/02 02:02:39;;;;;;;1.90;0.63;;;;;;;;;;20996323;28;20767;-69
2022/08/02 02:12:42;;;;;;;1.42;0.57;;;;;;;;;;20995710;28;20223;-68
2022/08/02 02:22:44;;;;;;;1.20;0.60;;;;;;;;;;20994022;28;20276;-68
2022/08/02 02:32:49;;;;;;;1.63;0.80;;;24.40;99.90;;;;;;20993695;28;20613;-68
2022/08/02 02:42:51;;;;;;;2.50;0.90;;;;;;;;;;20993852;28;20198;-68
2022/08/02 02:52:53;;;;;;;0.70;0.60;;;24.20;98.10;;;;;;21004264;28;20215;-70
2022/08/02 03:02:56;;;;;;;2.25;0.82;;;;;;;;;;20991248;28;20211;-68
2022/08/02 03:12:57;;;;;;;0.80;0.60;;;;;;;;;;20990600;28;20241;-68
2022/08/02 03:22:59;;;;;;;1.00;0.63;;;;;;;;;;20989297;28;20238;-68
2022/08/02 03:33:01;;;;;;;1.40;0.70;;;23.90;97.60;;;;;;20989698;28;20247;-69
2022/08/02 03:43:02;;;;;;;0.77;0.55;;;;;;;;;;20987468;28;20270;-71
2022/08/02 03:53:05;;;;;;;1.25;0.52;;;;;;;;;;21002862;28;20653;-72
2022/08/02 04:03:07;;;;;;;0.77;0.50;;;;;;;;;;20987652;28;20288;-70
2022/08/02 04:13:08;;;;;;;1.00;0.57;;;;;;;;;;20985050;28;20220;-76
2022/08/02 04:23:11;;;;;;;1.38;0.57;;;;;;;;;;20986058;28;20708;-76
2022/08/02 04:33:13;;;;;;;1.55;0.85;;;;;;;;;;20967948;28;20220;-75
2022/08/02 04:43:14;;;;;;;1.13;0.70;;;;;;;;;;20977229;22;20225;-84
2022/08/02 04:53:16;;;;;;;1.88;0.68;;;;;;;;;;21008682;28;20286;-84
2022/08/02 05:03:18;;;;;;;1.33;0.80;;;;;;;;;;21083050;28;20300;-85
2022/08/02 05:13:20;;;;;;;2.17;1.15;;;;;;;;;;21054237;28;20233;-84
2022/08/02 05:23:22;;;;;;;1.40;0.90;;;;;;;;;;21038514;28;20214;-82
2022/08/02 05:33:24;;;;;;;4.35;0.95;;;;;;;;;;21034736;28;20601;-86
2022/08/02 05:43:25;;;;;;;1.15;0.77;;;;;;;;;;21088743;28;20733;-86
2022/08/02 05:53:38;;;;;;;2.03;0.88;;;;;;;;;;21150427;28;20283;-86
2022/08/02 06:03:52;;;;;;;1.00;0.70;;;;;;;;;;21113892;28;20311;-86
2022/08/02 06:13:57;;;;;;;0.93;0.57;;;;;;;;;;21131064;28;20216;-86
2022/08/02 06:24:02;;;;;;;1.20;0.60;;;;;;;;;;21080313;28;20214;-85
2022/08/02 06:34:04;;;;;;;1.73;0.60;;;;;;;;;;21074349;28;20298;-85
2022/08/02 06:44:06;;;;;;;0.80;0.60;;;;;;;;;;21045391;28;20601;-85
2022/08/02 06:54:07;;;;;;;2.20;1.00;;;;;;;;;;21045385;28;20283;-85
2022/08/02 07:04:09;;;;;;;1.70;0.80;;;;;;;;;;21046825;28;20345;-85
2022/08/02 07:14:11;;;;;;;1.33;0.93;;;;;;;;;;21043623;28;20233;-85
2022/08/02 07:24:13;;;;;;;3.42;0.80;;;;;;;;;;21026428;28;20257;-85
2022/08/02 07:34:14;;;;;;;2.15;1.00;;;;;;;;;;21091686;28;20324;-87
2022/08/02 07:44:17;;;;;;;1.20;0.60;;;;;;;;;;21027121;28;20753;-86
2022/08/02 07:54:19;;;;;;;1.73;0.88;;;;;;;;;;21024724;28;20244;-86
2022/08/02 08:04:21;;;;;;;1.35;0.77;;;;;;;;;;21023640;28;20578;-86
2022/08/02 08:14:23;;;;;;;1.38;0.70;;;;;;;;;;21039745;28;20286;-85
2022/08/02 08:24:24;;;;;;;1.60;0.70;;;;;;;;;;21092990;28;20230;-86
2022/08/02 08:34:30;;;;;;;2.35;0.70;;;;;;;;;;21106297;28;20288;-86
2022/08/02 08:44:32;;;;;;;0.50;0.43;;;;;;;;;;21106258;28;20266;-85
2022/08/02 08:54:35;;;;;;;2.50;0.70;;;;;;;;;;21068505;28;20288;-86
2022/08/02 09:04:37;;;;;;;0.77;0.60;;;;;;;;;;21049146;28;20615;-86
2022/08/02 09:14:43;;;;;;;1.90;0.80;;;;;;;;;;21039713;27;20265;-89
2022/08/02 09:24:58;;;;;;;2.08;0.60;;;;;;;;;;21039610;28;20219;-88
2022/08/02 09:35:09;;;;;;;2.05;0.50;;;;;;;;;;21038012;28;20234;-86
2022/08/02 09:45:12;;;;;;;0.60;0.40;;;;;;;;;;21051319;28;20624;-85
2022/08/02 09:55:14;;;;;;;1.60;0.50;;;;;;;;;;20991024;28;20227;-86
2022/08/02 10:05:16;;;;;;;0.55;0.43;;;;;;;;;;20993260;28;20219;-87
2022/08/02 10:15:18;;;;;;;0.73;0.47;;;;;;;;;;21022370;28;20266;-86
2022/08/02 10:25:21;;;;;;;0.65;0.38;;;;;;;;;;21009687;28;20263;-87
2022/08/02 10:35:24;;;;;;;1.27;0.50;;;;;;;;;;21046528;28;20711;-86
2022/08/02 10:45:26;;;;;;;0.70;0.45;;;;;;;;;;21047344;27;20243;-88
2022/08/02 10:55:43;;;;;;;0.57;0.45;;;28.80;84.50;;;;;;21126841;28;20718;-85
2022/08/02 11:06:00;;;;;;;0.50;0.32;;;;;;;;;;21149669;28;20219;-85
2022/08/02 11:16:04;;;;;;;0.50;0.30;;;;;;;;;;21132007;28;20268;-85
2022/08/02 11:26:26;;;;;;;0.93;0.65;;;;;;;;;;21130160;28;20231;-87
2022/08/02 11:36:27;;;;;;;2.95;0.47;;;;;;;;;;21134988;28;20231;-85
2022/08/02 11:46:29;;;;;;;1.50;0.52;;;;;;;;;;21086825;28;20239;-86
2022/08/02 11:56:34;;;;;;;0.93;0.40;;;29.60;79.30;;;;;;21123736;28;20308;-87
2022/08/02 12:06:36;;;;;;;0.88;0.30;;;;;;;;;;21096591;28;20224;-86
2022/08/02 12:27:00;;;;;;;0.38;0.30;;;;;;;;;;21074586;28;20232;-86
2022/08/02 12:37:04;;;;;;;0.40;0.30;;;;;;;;;;21030816;28;20233;-85
2022/08/02 12:47:10;;;;;;;0.80;0.50;;;;;;;;;;21023067;28;20239;-86
2022/08/02 12:57:13;;;;;;;0.47;0.32;;;;;;;;;;21050525;28;20262;-85
2022/08/02 13:07:15;;;;;;;0.40;0.30;;;;;;;;;;21061872;28;20221;-86
2022/08/02 13:17:16;;;;;;;0.45;0.30;;;;;;;;;;21037641;28;20870;-87
2022/08/02 13:27:19;;;;;;;0.40;0.40;;;;;;;;;;21097864;28;20273;-87
2022/08/02 13:37:21;;;;;;;1.00;0.30;;;;;;;;;;21111045;28;20217;-86
2022/08/02 13:47:23;;;;;;;1.48;0.40;;;;;;;;;;21051912;28;20208;-86
2022/08/02 13:57:24;;;;;;;3.05;0.47;;;;;;;;;;20994453;28;20229;-85
2022/08/02 14:07:26;;;;;;;0.95;0.30;;;;;;;;;;21067002;28;20209;-85
2022/08/02 14:17:28;;;;;;;0.60;0.40;;;;;;;;;;21049499;28;20237;-87
2022/08/02 14:27:30;;;;;;;0.47;0.30;;;;;;;;;;21048467;28;20552;-86
2022/08/02 14:37:32;;;;;;;0.90;0.40;;;;;;;;;;21045724;28;20270;-87
2022/08/02 14:47:33;;;;;;;0.70;0.35;;;;;;;;;;21020391;28;20236;-87
2022/08/02 14:57:35;;;;;;;0.60;0.40;;;;;;;;;;21023970;28;20237;-87
2022/08/02 15:07:37;;;;;;;0.35;0.30;;;;;;;;;;21028548;28;20221;-87
2022/08/02 15:17:39;;;;;;;2.00;0.45;;;;;;;;;;21011453;28;20228;-86
2022/08/02 15:27:40;;;;;;;0.98;0.45;;;;;;;;;;21052989;28;20193;-86
2022/08/02 15:37:42;;;;;;;0.43;0.38;;;;;;;;;;21049835;28;20294;-87
2022/08/02 15:47:44;;;;;;;0.88;0.50;;;;;;;;;;21009343;28;20236;-86
2022/08/02 15:57:46;;;;;;;0.40;0.40;;;;;;;;;;21024180;28;20738;-86
2022/08/02 16:07:48;;;;;;;0.73;0.35;;;;;;;;;;21027163;28;20200;-86
2022/08/02 16:17:50;;;;;;;0.63;0.40;;;;;;;;;;21007334;28;20244;-87
2022/08/02 16:27:51;;;;;;;0.70;0.50;;;;;;;;;;21053973;28;20220;-88
2022/08/02 16:37:53;;;;;;;0.73;0.50;;;;;;;;;;21032528;27;20309;-88
2022/08/02 16:47:55;;;;;;;0.90;0.30;;;;;;;;;;21098423;28;20216;-87
2022/08/02 16:57:59;;;;;;;1.05;0.40;;;;;;;;;;21034526;27;20221;-87
2022/08/02 17:08:03;;;;;;;0.70;0.40;;;;;;;;;;21037226;27;20196;-88
2022/08/02 17:18:05;;;;;;;0.70;0.30;;;;;;;;;;21056088;27;20254;-88
2022/08/02 17:28:06;;;;;;;2.00;0.22;;;;;;;;;;21128172;27;20192;-87
2022/08/02 17:38:08;;;;;;;0.60;0.50;;;;;;;;;;21044527;28;20253;-87
2022/08/02 17:48:10;;;;;;;1.20;0.43;;;;;;;;;;21045308;28;20189;-86
2022/08/02 17:58:12;;;;;;;0.85;0.50;;;;;;;;;;21043716;28;20336;-86
2022/08/02 18:08:14;;;;;;;1.40;0.50;;;;;;;;;;21083874;28;20216;-87
2022/08/02 18:18:16;;;;;;;0.75;0.30;;;;;;;;;;21070446;28;20701;-86
2022/08/02 18:28:18;;;;;;;0.40;0.40;;;;;;;;;;21059684;28;20926;-87
2022/08/02 18:38:19;;;;;;;1.50;0.43;;;;;;;;;;21074400;27;20228;-86
2022/08/02 18:48:21;;;;;;;0.68;0.40;;;;;;;;;;21020710;28;20224;-88
2022/08/02 18:58:24;;;;;;;0.55;0.30;;;;;;;;;;21075549;28;20368;-87
2022/08/02 19:08:26;;;;;;;4.35;0.82;;;;;;;;;;21122536;22;20303;-68
2022/08/02 19:18:27;;;;;;;2.58;0.82;;;;;;;;;;20958758;28;20700;-69
2022/08/02 19:28:29;;;;;;;0.50;0.50;;;;;;;;;;20968073;28;20209;-69
2022/08/02 19:38:31;;;;;;;1.58;0.60;;;;;;;;;;20953709;28;20589;-69
2022/08/02 19:48:33;;;;;;;2.67;0.60;;;;;;;;;;21015363;28;20235;-69
2022/08/02 19:58:38;;;;;;;5.88;1.13;;;;;;;;;;20992506;28;20227;-68
2022/08/02 20:08:40;;;;;;;1.70;0.80;;;;;;;;;;20984380;28;20235;-68
2022/08/02 20:18:42;;;;;;;3.47;0.80;;;;;;;;;;20994248;28;20750;-69
2022/08/02 20:28:44;;;;;;;3.60;0.68;;;;;;;;;;20957203;28;20232;-69
2022/08/02 20:38:46;;;;;;;4.18;0.50;;;;;;;;;;21008192;28;20717;-69
2022/08/02 20:48:48;;;;;;;1.08;0.60;;;;;;;;;;21024333;28;20764;-69
2022/08/02 20:58:50;;;;;;;1.02;0.60;;;;;;;;;;21016430;28;20232;-69
2022/08/02 21:08:52;;;;;;;4.28;0.65;;;;;;;;;;21041575;28;20258;-69
2022/08/02 21:18:54;;;;;;;4.60;0.75;;;;;;;;;;21011002;28;20228;-69
2022/08/02 21:28:56;;;;;;;1.35;0.60;;;;;;;;;;20999199;28;20687;-69
2022/08/02 21:39:02;;;;;;;2.58;0.70;;;27.70;84.80;;;;;;21023210;28;20678;-69
2022/08/02 21:49:04;;;;;;;2.78;0.95;;;;;;;;;;21016565;28;20192;-69
2022/08/02 21:59:06;;;;;;;0.88;0.50;;;;;;;;;;21002103;28;20836;-69
2022/08/02 22:09:08;;;;;;;1.50;0.60;;;;;;;;;;21017160;28;20242;-69
2022/08/02 22:19:10;;;;;;;3.55;0.70;;;;;;;;;;21018918;28;20660;-69
2022/08/02 22:29:12;;;;;;;1.33;0.80;;;27.10;91.30;;;;;;21032045;28;20250;-69
2022/08/02 22:39:15;;;;;;;2.63;0.85;;;27.10;92.50;;;;;;21010347;28;20215;-69
2022/08/02 22:49:17;;;;;;;1.23;0.73;;;;;;;;;;21004545;28;20318;-70
2022/08/02 22:59:19;;;;;;;1.23;0.75;;;;;;;;;;21004627;28;20273;-71
2022/08/02 23:09:21;;;;;;;1.17;0.70;;;;;;;;;;21031903;28;20235;-72
2022/08/02 23:29:43;;;;;;;0.80;0.60;;;;;;;;;;21031686;28;20215;-71
2022/08/02 23:39:45;;;;;;;2.67;0.55;;;;;;;;;;21091271;22;20226;-69
